Time;durP1;ratioP1;P1;durP2;ratioP2;P2;SDS_P1;SDS_P2;PMS_P1;PMS_P2;Temp;Humidity;BMP_temperature;BMP_pressure;BME280_temperature;BME280_humidity;BME280_pressure;Samples;Min_cycle;Max_cycle;Signal;HPM_P1;HPM_P2
2023/08/12 00:00:49;;;;;;;4.68;2.10;;;22.90;73.50;;;;;;5074159;28;20045;-63
2023/08/12 00:03:15;;;;;;;4.40;1.90;;;22.90;73.50;;;;;;5073634;28;20033;-63
2023/08/12 00:05:42;;;;;;;2.95;1.73;;;22.90;73.40;;;;;;5073559;28;20047;-63
2023/08/12 00:08:08;;;;;;;4.40;1.73;;;22.90;73.40;;;;;;5073612;28;20074;-63
2023/08/12 00:10:34;;;;;;;2.80;1.80;;;22.90;73.40;;;;;;5073129;28;20047;-63
2023/08/12 00:12:59;;;;;;;2.95;1.80;;;22.90;73.40;;;;;;5072927;28;20045;-63
2023/08/12 00:15:25;;;;;;;3.25;1.83;;;22.90;73.30;;;;;;5074071;28;20044;-62
2023/08/12 00:17:50;;;;;;;3.58;1.60;;;22.90;73.40;;;;;;5072453;28;20040;-63
2023/08/12 00:20:16;;;;;;;4.65;2.13;;;22.90;73.40;;;;;;5073985;28;20036;-63
2023/08/12 00:22:42;;;;;;;3.55;1.70;;;22.90;73.30;;;;;;5073613;28;20784;-62
2023/08/12 00:25:07;;;;;;;3.50;1.95;;;22.90;73.50;;;;;;5073220;28;20472;-62
2023/08/12 00:27:33;;;;;;;3.30;2.08;;;22.90;73.30;;;;;;5072377;28;20044;-63
2023/08/12 00:29:59;;;;;;;3.88;2.28;;;22.90;73.30;;;;;;5072529;28;20047;-62
2023/08/12 00:32:24;;;;;;;2.40;1.70;;;22.90;73.30;;;;;;5072744;28;20044;-62
2023/08/12 00:34:50;;;;;;;2.72;1.58;;;22.90;73.20;;;;;;5073144;28;20472;-62
2023/08/12 00:37:15;;;;;;;3.20;1.88;;;22.90;73.30;;;;;;5073569;28;20047;-62
2023/08/12 00:39:41;;;;;;;2.72;1.90;;;22.90;73.30;;;;;;5071533;28;20488;-62
2023/08/12 00:42:07;;;;;;;3.17;1.77;;;22.80;73.20;;;;;;5073490;28;20423;-63
2023/08/12 00:44:32;;;;;;;3.47;2.03;;;22.80;73.20;;;;;;5073243;28;20063;-63
2023/08/12 00:46:58;;;;;;;3.47;1.95;;;22.80;73.20;;;;;;5071267;28;20535;-62
2023/08/12 00:49:24;;;;;;;3.05;1.85;;;22.80;73.20;;;;;;5072303;28;20048;-63
2023/08/12 00:51:50;;;;;;;3.38;1.77;;;22.90;73.20;;;;;;5071514;28;20045;-62
2023/08/12 00:54:15;;;;;;;3.78;1.98;;;22.90;73.20;;;;;;5070925;28;20125;-63
2023/08/12 00:56:41;;;;;;;3.38;1.92;;;22.80;73.10;;;;;;5071651;28;20079;-63
2023/08/12 00:59:07;;;;;;;2.75;1.70;;;22.80;73.20;;;;;;5073201;28;20071;-62
2023/08/12 01:01:33;;;;;;;4.05;1.77;;;22.80;73.20;;;;;;5072106;28;20039;-62
2023/08/12 01:03:59;;;;;;;2.42;1.42;;;22.80;73.10;;;;;;5071624;28;20040;-63
2023/08/12 01:06:24;;;;;;;2.88;1.70;;;22.90;73.20;;;;;;5071660;28;20109;-63
2023/08/12 01:08:50;;;;;;;2.85;1.73;;;22.80;73.10;;;;;;5072565;28;20124;-63
2023/08/12 01:11:19;;;;;;;3.90;1.92;;;22.80;73.10;;;;;;5072937;28;20134;-62
2023/08/12 01:14:00;;;;;;;3.50;1.63;;;22.80;73.10;;;;;;5070866;28;20055;-62
2023/08/12 01:16:28;;;;;;;2.63;1.50;;;22.80;73.10;;;;;;5055657;28;20040;-62
2023/08/12 01:18:53;;;;;;;;;;;22.80;73.10;;;;;;5072675;28;20045;-62
2023/08/12 01:21:19;;;;;;;2.83;1.20;;;22.80;73.00;;;;;;5072157;28;19927;-62
2023/08/12 01:23:45;;;;;;;2.80;1.80;;;22.80;73.10;;;;;;5054578;28;20153;-62
2023/08/12 01:26:11;;;;;;;3.10;1.80;;;22.80;73.10;;;;;;5072460;28;20082;-62
2023/08/12 01:28:36;;;;;;;2.88;1.63;;;22.80;73.10;;;;;;5071928;28;20044;-62
2023/08/12 01:31:06;;;;;;;2.38;1.40;;;22.80;73.10;;;;;;5072577;28;20055;-62
2023/08/12 01:33:39;;;;;;;2.67;1.60;;;22.80;73.10;;;;;;5071123;28;20062;-62
2023/08/12 01:36:16;;;;;;;3.25;1.70;;;22.80;73.10;;;;;;5070125;28;20040;-62
2023/08/12 01:38:41;;;;;;;2.95;1.55;;;22.80;73.10;;;;;;5070706;28;20076;-63
2023/08/12 01:41:09;;;;;;;2.65;1.55;;;22.80;73.10;;;;;;5070945;28;20075;-62
2023/08/12 01:43:34;;;;;;;2.57;1.40;;;22.80;73.10;;;;;;5053750;28;20496;-63
2023/08/12 01:46:00;;;;;;;2.00;1.42;;;22.80;73.10;;;;;;5072371;28;20044;-63
2023/08/12 01:48:26;;;;;;;3.40;1.60;;;22.80;73.10;;;;;;5071417;28;20113;-63
2023/08/12 01:50:51;;;;;;;2.08;1.40;;;22.70;73.10;;;;;;5071556;28;20072;-63
2023/08/12 01:53:17;;;;;;;2.30;1.50;;;22.80;73.10;;;;;;5072532;28;20553;-62
2023/08/12 01:55:43;;;;;;;2.70;1.48;;;22.80;73.10;;;;;;5070249;28;20047;-62
2023/08/12 01:58:09;;;;;;;3.40;1.70;;;22.70;73.00;;;;;;5072456;28;20063;-62
2023/08/12 02:00:34;;;;;;;3.15;1.65;;;22.80;73.10;;;;;;5070562;28;20408;-62
2023/08/12 02:03:00;;;;;;;2.10;1.50;;;22.80;73.10;;;;;;5071035;28;20037;-62
2023/08/12 02:05:25;;;;;;;2.50;1.60;;;22.80;73.10;;;;;;5071514;28;20090;-62
2023/08/12 02:07:51;;;;;;;3.70;1.48;;;22.70;73.00;;;;;;5070741;28;20074;-63
2023/08/12 02:10:16;;;;;;;2.13;1.35;;;22.80;73.10;;;;;;5071591;28;20472;-62
2023/08/12 02:12:42;;;;;;;3.17;1.70;;;22.80;73.10;;;;;;5071869;28;20094;-62
2023/08/12 02:15:08;;;;;;;2.50;1.30;;;22.70;73.00;;;;;;5072350;28;20045;-62
2023/08/12 02:17:34;;;;;;;1.95;1.20;;;22.70;73.00;;;;;;5071371;28;20041;-62
2023/08/12 02:19:59;;;;;;;3.55;1.40;;;22.80;73.10;;;;;;5072386;28;20047;-63
2023/08/12 02:22:25;;;;;;;2.33;1.50;;;22.70;73.00;;;;;;5072275;28;20044;-62
2023/08/12 02:24:50;;;;;;;2.55;1.50;;;22.70;73.00;;;;;;5070705;28;20051;-62
2023/08/12 02:27:16;;;;;;;2.90;1.58;;;22.70;73.00;;;;;;5071998;28;20052;-62
2023/08/12 02:29:41;;;;;;;3.15;1.70;;;22.70;73.00;;;;;;5071811;28;20067;-62
2023/08/12 02:32:07;;;;;;;3.55;1.38;;;22.70;73.00;;;;;;5071167;28;20444;-62
2023/08/12 02:34:33;;;;;;;2.50;1.45;;;22.70;73.00;;;;;;5072128;28;20049;-62
2023/08/12 02:36:58;;;;;;;4.03;1.45;;;22.70;73.10;;;;;;5071960;28;20052;-63
2023/08/12 02:39:24;;;;;;;2.20;1.45;;;22.70;73.00;;;;;;5071418;28;20069;-63
2023/08/12 02:41:49;;;;;;;2.67;1.70;;;22.70;73.00;;;;;;5071853;28;20075;-63
2023/08/12 02:44:15;;;;;;;2.40;1.48;;;22.70;73.00;;;;;;5071985;28;20063;-62
2023/08/12 02:46:40;;;;;;;2.30;1.40;;;22.70;73.00;;;;;;5070916;28;20090;-63
2023/08/12 02:49:06;;;;;;;2.83;1.45;;;22.70;73.00;;;;;;5070430;28;20048;-63
2023/08/12 02:51:31;;;;;;;2.40;1.40;;;22.70;73.00;;;;;;5074913;28;20089;-63
2023/08/12 02:53:57;;;;;;;2.47;1.48;;;22.70;73.00;;;;;;5074686;28;20051;-62
2023/08/12 02:56:23;;;;;;;2.40;1.70;;;22.70;73.00;;;;;;5074136;28;20446;-62
2023/08/12 02:58:48;;;;;;;2.28;1.30;;;22.70;73.00;;;;;;5053723;28;20041;-63
2023/08/12 03:01:14;;;;;;;2.53;1.27;;;22.70;73.00;;;;;;5054394;28;20040;-62
2023/08/12 03:03:40;;;;;;;1.92;1.40;;;22.70;73.00;;;;;;5072229;28;20032;-62
2023/08/12 03:06:05;;;;;;;3.53;1.40;;;22.70;73.00;;;;;;5074756;28;20537;-62
2023/08/12 03:08:31;;;;;;;2.67;1.55;;;22.70;73.00;;;;;;5075206;28;20044;-62
2023/08/12 03:11:01;;;;;;;2.38;1.50;;;22.60;73.00;;;;;;5073481;28;20403;-62
2023/08/12 03:13:27;;;;;;;2.17;1.27;;;22.70;73.10;;;;;;5074181;28;20043;-62
2023/08/12 03:15:52;;;;;;;3.13;1.33;;;22.70;73.00;;;;;;5075348;28;20054;-62
2023/08/12 03:18:18;;;;;;;2.03;1.35;;;22.70;73.00;;;;;;5074979;28;20040;-62
2023/08/12 03:20:43;;;;;;;1.73;1.10;;;22.70;73.00;;;;;;5073621;28;20044;-63
2023/08/12 03:23:09;;;;;;;3.30;1.30;;;22.70;73.00;;;;;;5073692;28;20086;-62
2023/08/12 03:25:34;;;;;;;2.70;1.30;;;22.70;73.00;;;;;;5074939;28;20094;-62
2023/08/12 03:28:00;;;;;;;2.55;1.30;;;22.60;73.00;;;;;;5073874;28;20043;-62
2023/08/12 03:30:25;;;;;;;2.38;1.30;;;22.60;73.00;;;;;;5074169;28;20052;-62
2023/08/12 03:32:52;;;;;;;2.80;1.70;;;22.60;72.90;;;;;;5074505;28;20128;-62
2023/08/12 03:35:18;;;;;;;3.90;1.50;;;22.60;73.00;;;;;;5074331;28;20044;-62
2023/08/12 03:37:43;;;;;;;2.22;1.25;;;22.70;73.00;;;;;;5074588;28;20067;-62
2023/08/12 03:40:09;;;;;;;2.50;1.58;;;22.60;72.90;;;;;;5074614;28;20395;-62
2023/08/12 03:42:35;;;;;;;2.63;1.55;;;22.60;73.00;;;;;;5072033;28;20040;-62
2023/08/12 03:45:00;;;;;;;1.75;1.23;;;22.60;72.90;;;;;;5074813;28;20067;-63
2023/08/12 03:47:26;;;;;;;2.50;1.30;;;22.60;72.90;;;;;;5074743;28;20037;-63
2023/08/12 03:49:52;;;;;;;2.42;1.48;;;22.60;72.90;;;;;;5073517;28;20097;-62
2023/08/12 03:52:17;;;;;;;2.05;1.35;;;22.60;72.90;;;;;;5073028;28;20381;-63
2023/08/12 03:54:43;;;;;;;2.10;1.10;;;22.60;72.90;;;;;;5074349;28;20503;-62
2023/08/12 03:57:09;;;;;;;2.08;1.30;;;22.60;72.90;;;;;;5072346;28;20052;-62
2023/08/12 03:59:34;;;;;;;3.45;1.20;;;22.60;72.90;;;;;;5074368;28;20446;-62
2023/08/12 04:02:00;;;;;;;2.30;1.50;;;22.60;73.00;;;;;;5072550;28;20040;-62
2023/08/12 04:04:25;;;;;;;2.22;1.40;;;22.60;72.90;;;;;;5072682;28;20139;-63
2023/08/12 04:06:51;;;;;;;1.98;1.30;;;22.60;72.90;;;;;;5073057;28;20044;-62
2023/08/12 04:09:18;;;;;;;2.40;1.42;;;22.60;72.90;;;;;;5054106;28;20554;-62
2023/08/12 04:11:44;;;;;;;2.42;1.38;;;22.60;72.90;;;;;;5053334;28;20043;-62
2023/08/12 04:14:09;;;;;;;1.95;1.27;;;22.60;72.90;;;;;;5073135;28;20123;-62
2023/08/12 04:16:35;;;;;;;3.92;1.63;;;22.60;72.90;;;;;;5072808;28;20135;-62
2023/08/12 04:19:00;;;;;;;2.13;1.50;;;22.60;72.90;;;;;;5074060;28;20041;-62
2023/08/12 04:21:26;;;;;;;2.45;1.55;;;22.60;72.90;;;;;;5074003;28;20037;-63
2023/08/12 04:23:51;;;;;;;2.50;1.73;;;22.60;72.90;;;;;;5072594;28;20119;-62
2023/08/12 04:26:17;;;;;;;2.47;1.20;;;22.60;72.90;;;;;;5073600;28;20048;-62
2023/08/12 04:28:42;;;;;;;3.15;1.48;;;22.60;72.90;;;;;;5073751;28;20127;-62
2023/08/12 04:31:08;;;;;;;1.90;1.40;;;22.60;72.90;;;;;;5073041;28;20045;-62
2023/08/12 04:33:34;;;;;;;2.55;1.45;;;22.60;72.90;;;;;;5073035;28;20064;-63
2023/08/12 04:35:59;;;;;;;2.42;1.40;;;22.60;72.90;;;;;;5072113;28;20131;-63
2023/08/12 04:38:25;;;;;;;2.70;1.52;;;22.60;72.90;;;;;;5072572;28;20033;-62
2023/08/12 04:40:52;;;;;;;2.05;1.42;;;22.60;72.90;;;;;;5072020;28;20440;-62
2023/08/12 04:43:18;;;;;;;3.17;1.90;;;22.60;73.00;;;;;;5071974;28;20483;-62
2023/08/12 04:45:47;;;;;;;2.88;1.52;;;22.60;72.90;;;;;;5072473;28;20315;-62
2023/08/12 04:48:13;;;;;;;1.70;1.30;;;22.60;72.90;;;;;;5073425;28;20069;-62
2023/08/12 04:50:38;;;;;;;2.25;1.38;;;22.60;72.90;;;;;;5071745;28;20072;-62
2023/08/12 04:53:05;;;;;;;2.40;1.40;;;22.60;72.90;;;;;;5072671;28;20036;-62
2023/08/12 04:55:30;;;;;;;2.38;1.23;;;22.60;72.90;;;;;;5073382;28;20490;-62
2023/08/12 04:57:56;;;;;;;2.72;1.60;;;22.60;72.90;;;;;;5073148;28;20119;-62
2023/08/12 05:00:22;;;;;;;2.20;1.30;;;22.60;72.90;;;;;;5072407;28;20072;-62
2023/08/12 05:02:48;;;;;;;2.35;1.38;;;22.60;72.90;;;;;;5073233;28;20048;-62
2023/08/12 05:05:13;;;;;;;2.17;1.40;;;22.60;72.90;;;;;;5072957;28;20048;-62
2023/08/12 05:07:39;;;;;;;1.83;1.17;;;22.60;72.90;;;;;;5072236;28;20040;-60
2023/08/12 05:10:05;;;;;;;6.13;1.40;;;22.60;72.90;;;;;;5073248;28;20336;-61
2023/08/12 05:12:30;;;;;;;2.38;1.30;;;22.50;72.90;;;;;;5071669;28;20036;-61
2023/08/12 05:14:56;;;;;;;2.72;1.35;;;22.60;73.00;;;;;;5071472;28;20036;-62
2023/08/12 05:17:21;;;;;;;1.80;1.30;;;22.60;73.00;;;;;;5072145;28;20037;-62
2023/08/12 05:19:47;;;;;;;2.40;1.35;;;22.60;73.00;;;;;;5072020;28;20136;-61
2023/08/12 05:22:13;;;;;;;3.75;1.83;;;22.60;73.00;;;;;;5073149;28;20037;-63
2023/08/12 05:24:38;;;;;;;3.40;1.52;;;22.50;73.00;;;;;;5071953;28;20076;-63
2023/08/12 05:27:04;;;;;;;5.15;1.70;;;22.60;73.10;;;;;;5070891;28;20079;-62
2023/08/12 05:29:30;;;;;;;4.07;1.80;;;22.60;73.10;;;;;;5071809;28;20110;-62
2023/08/12 05:31:56;;;;;;;3.45;1.52;;;22.60;73.10;;;;;;5071566;28;20032;-63
2023/08/12 05:34:21;;;;;;;3.72;1.98;;;22.50;73.10;;;;;;5071292;28;20091;-62
2023/08/12 05:36:47;;;;;;;3.10;1.50;;;22.60;73.30;;;;;;5072521;28;20111;-62
2023/08/12 05:39:12;;;;;;;4.22;1.85;;;22.60;73.30;;;;;;5072017;28;20078;-62
2023/08/12 05:41:38;;;;;;;5.00;2.00;;;22.60;73.30;;;;;;5070569;28;20480;-62
2023/08/12 05:44:04;;;;;;;4.60;1.58;;;22.60;73.30;;;;;;5072646;28;20457;-62
2023/08/12 05:46:30;;;;;;;3.05;1.75;;;22.60;73.30;;;;;;5072518;28;20049;-62
2023/08/12 05:48:55;;;;;;;3.60;1.70;;;22.60;73.30;;;;;;5071274;28;20047;-62
2023/08/12 05:51:21;;;;;;;3.80;1.90;;;22.60;73.30;;;;;;5072608;28;20048;-62
2023/08/12 05:53:47;;;;;;;4.22;2.25;;;22.60;73.40;;;;;;5072000;28;20036;-62
2023/08/12 05:56:13;;;;;;;6.20;1.90;;;22.60;73.40;;;;;;5070440;28;20403;-62
2023/08/12 05:58:38;;;;;;;4.00;1.85;;;22.60;73.40;;;;;;5072197;28;20487;-62
2023/08/12 06:01:04;;;;;;;6.00;1.95;;;22.60;73.50;;;;;;5072380;28;20051;-62
2023/08/12 06:03:30;;;;;;;4.03;1.88;;;22.60;73.50;;;;;;5070984;28;20503;-62
2023/08/12 06:05:55;;;;;;;4.85;1.77;;;22.60;73.50;;;;;;5071895;28;20040;-62
2023/08/12 06:08:21;;;;;;;3.95;1.63;;;22.60;73.50;;;;;;5071844;28;20040;-62
2023/08/12 06:10:46;;;;;;;4.63;1.77;;;22.70;73.60;;;;;;5069677;28;20102;-62
2023/08/12 06:13:12;;;;;;;3.05;1.80;;;22.70;73.60;;;;;;5069960;28;20479;-64
2023/08/12 06:15:38;;;;;;;5.88;2.08;;;22.70;73.50;;;;;;5072250;28;20045;-63
2023/08/12 06:18:03;;;;;;;4.15;1.42;;;22.70;73.50;;;;;;5071126;28;20051;-62
2023/08/12 06:20:29;;;;;;;4.60;1.90;;;22.70;73.50;;;;;;5072372;28;20041;-62
2023/08/12 06:22:55;;;;;;;5.15;1.70;;;22.70;73.60;;;;;;5070888;28;20114;-64
2023/08/12 06:25:20;;;;;;;8.85;1.90;;;22.70;73.60;;;;;;5072317;28;20063;-64
2023/08/12 06:27:47;;;;;;;4.53;1.77;;;22.80;73.70;;;;;;5075975;28;20087;-63
2023/08/12 06:30:13;;;;;;;5.18;1.85;;;22.80;73.70;;;;;;5074072;28;20036;-61
2023/08/12 06:32:39;;;;;;;5.15;1.65;;;22.80;73.70;;;;;;5074205;28;20052;-63
2023/08/12 06:35:04;;;;;;;2.97;1.88;;;22.80;73.80;;;;;;5073937;28;20101;-62
2023/08/12 06:37:30;;;;;;;3.08;1.65;;;22.80;73.80;;;;;;5074957;28;20084;-62
2023/08/12 06:39:55;;;;;;;3.33;1.83;;;22.80;73.80;;;;;;5074107;28;20051;-63
2023/08/12 06:42:22;;;;;;;4.65;1.92;;;22.80;73.90;;;;;;5075865;28;20041;-63
2023/08/12 06:44:54;;;;;;;5.03;2.00;;;22.80;74.00;;;;;;5074501;28;20052;-62
2023/08/12 06:47:20;;;;;;;4.25;1.65;;;22.80;74.00;;;;;;5074378;28;20064;-64
2023/08/12 06:49:46;;;;;;;3.10;2.00;;;22.80;74.00;;;;;;5074768;28;20087;-63
2023/08/12 06:52:12;;;;;;;4.03;2.05;;;22.80;74.00;;;;;;5073677;28;20083;-63
2023/08/12 06:54:37;;;;;;;6.35;2.00;;;22.80;74.00;;;;;;5072772;28;20444;-64
2023/08/12 06:57:03;;;;;;;4.25;2.17;;;22.80;74.10;;;;;;5074756;28;20124;-64
2023/08/12 06:59:29;;;;;;;3.78;2.10;;;22.80;74.10;;;;;;5072994;28;20032;-64
2023/08/12 07:01:54;;;;;;;5.03;1.83;;;22.80;74.10;;;;;;5074826;28;20388;-64
2023/08/12 07:04:20;;;;;;;2.95;1.83;;;22.80;74.10;;;;;;5074337;28;20183;-64
2023/08/12 07:06:45;;;;;;;4.43;1.90;;;22.80;74.20;;;;;;5074184;28;20079;-63
2023/08/12 07:09:11;;;;;;;5.47;2.05;;;22.80;74.30;;;;;;5074943;28;20044;-63
2023/08/12 07:11:36;;;;;;;2.33;1.60;;;22.80;74.30;;;;;;5074749;28;20050;-63
2023/08/12 07:14:02;;;;;;;3.05;1.80;;;22.80;74.30;;;;;;5074595;28;20503;-63
2023/08/12 07:16:28;;;;;;;3.65;2.00;;;22.80;74.30;;;;;;5075082;28;20044;-63
2023/08/12 07:18:53;;;;;;;4.03;1.70;;;22.80;74.40;;;;;;5073323;28;20044;-63
2023/08/12 07:21:19;;;;;;;4.68;2.38;;;22.80;74.40;;;;;;5074114;28;20043;-64
2023/08/12 07:23:44;;;;;;;5.15;1.95;;;22.80;74.50;;;;;;5074833;28;21965;-63
2023/08/12 07:26:10;;;;;;;4.38;1.98;;;22.80;74.50;;;;;;5074798;28;20040;-63
2023/08/12 07:28:35;;;;;;;3.55;2.10;;;22.80;74.60;;;;;;5073340;28;20057;-63
2023/08/12 07:31:01;;;;;;;4.97;2.22;;;22.80;74.60;;;;;;5073141;28;20071;-63
2023/08/12 07:33:27;;;;;;;3.60;2.10;;;22.80;74.60;;;;;;5073584;28;20102;-63
2023/08/12 07:35:53;;;;;;;3.47;1.80;;;22.80;74.70;;;;;;5073811;28;20553;-63
2023/08/12 07:38:19;;;;;;;3.05;2.10;;;22.80;74.70;;;;;;5071989;28;20044;-63
2023/08/12 07:40:45;;;;;;;4.65;1.80;;;22.80;74.70;;;;;;5072497;28;20123;-61
2023/08/12 07:43:10;;;;;;;5.25;2.00;;;22.80;74.70;;;;;;5074646;28;20079;-59
2023/08/12 07:45:36;;;;;;;4.57;1.85;;;22.80;74.70;;;;;;5074085;28;20051;-60
2023/08/12 07:48:01;;;;;;;3.75;2.05;;;22.80;74.70;;;;;;5073590;28;20075;-60
2023/08/12 07:50:27;;;;;;;5.10;2.30;;;22.80;74.70;;;;;;5074242;28;20547;-60
2023/08/12 07:52:53;;;;;;;3.17;1.70;;;22.80;74.70;;;;;;5074117;28;20289;-60
2023/08/12 07:55:18;;;;;;;3.58;2.00;;;22.80;74.70;;;;;;5073717;28;20079;-59
2023/08/12 07:57:45;;;;;;;5.38;2.05;;;22.80;74.70;;;;;;5072854;28;20373;-60
2023/08/12 08:00:11;;;;;;;3.33;2.05;;;22.80;74.70;;;;;;5073907;28;20037;-61
2023/08/12 08:02:37;;;;;;;3.65;2.10;;;22.80;74.80;;;;;;5073183;28;20044;-61
2023/08/12 08:05:03;;;;;;;5.88;2.60;;;22.80;74.90;;;;;;5073550;28;20092;-61
2023/08/12 08:07:29;;;;;;;4.18;2.28;;;22.80;75.00;;;;;;5072969;28;20496;-61
2023/08/12 08:09:55;;;;;;;4.82;2.20;;;22.80;75.10;;;;;;5073091;28;20076;-60
2023/08/12 08:12:20;;;;;;;3.15;2.10;;;22.80;75.10;;;;;;5072926;28;20051;-61
2023/08/12 08:14:46;;;;;;;4.70;1.85;;;22.80;75.20;;;;;;5074245;28;20047;-61
2023/08/12 08:17:11;;;;;;;3.95;2.08;;;22.80;75.00;;;;;;5073452;28;20047;-61
2023/08/12 08:19:37;;;;;;;4.47;2.05;;;22.80;74.90;;;;;;5073542;28;20046;-62
2023/08/12 08:22:03;;;;;;;6.30;2.35;;;22.80;74.90;;;;;;5074078;28;20393;-62
2023/08/12 08:24:29;;;;;;;5.43;2.42;;;22.80;74.90;;;;;;5073477;28;20063;-62
2023/08/12 08:26:54;;;;;;;4.03;2.35;;;22.80;74.90;;;;;;5073483;28;20123;-61
2023/08/12 08:29:20;;;;;;;4.53;2.40;;;22.70;74.80;;;;;;5074133;28;20051;-61
2023/08/12 08:31:46;;;;;;;3.97;2.05;;;22.80;74.90;;;;;;5072938;28;20032;-61
2023/08/12 08:34:11;;;;;;;3.75;1.90;;;22.70;74.80;;;;;;5072030;28;20452;-61
2023/08/12 08:36:37;;;;;;;4.85;2.20;;;22.70;74.70;;;;;;5071349;28;20044;-61
2023/08/12 08:39:03;;;;;;;3.40;1.55;;;22.70;74.60;;;;;;5073882;28;20044;-65
2023/08/12 08:41:30;;;;;;;6.97;2.30;;;22.70;74.50;;;;;;5072401;28;20043;-61
2023/08/12 08:43:56;;;;;;;4.13;2.55;;;22.70;74.60;;;;;;5072481;28;20555;-61
2023/08/12 08:46:21;;;;;;;5.88;2.50;;;22.70;74.60;;;;;;5070116;28;20033;-60
2023/08/12 08:48:47;;;;;;;5.22;2.47;;;22.70;74.70;;;;;;5054834;28;20052;-61
2023/08/12 08:51:13;;;;;;;5.93;2.90;;;22.70;74.90;;;;;;5054564;28;20412;-60
2023/08/12 08:53:39;;;;;;;6.30;2.92;;;22.70;75.00;;;;;;5073213;28;20055;-60
2023/08/12 08:56:08;;;;;;;6.97;2.75;;;22.70;75.00;;;;;;5073591;28;20041;-60
2023/08/12 08:58:34;;;;;;;4.20;2.60;;;22.70;75.20;;;;;;5072057;28;20097;-61
2023/08/12 09:00:59;;;;;;;6.32;2.72;;;22.70;75.20;;;;;;5072368;28;20127;-61
2023/08/12 09:03:25;;;;;;;4.55;2.55;;;22.70;75.20;;;;;;5072929;28;20480;-62
2023/08/12 09:05:51;;;;;;;5.10;2.53;;;22.70;75.20;;;;;;5071912;28;20045;-62
2023/08/12 09:08:17;;;;;;;5.38;2.67;;;22.70;75.20;;;;;;5073140;28;20037;-61
2023/08/12 09:10:42;;;;;;;3.65;2.90;;;22.70;75.20;;;;;;5070943;28;20044;-61
2023/08/12 09:13:11;;;;;;;3.75;2.80;;;22.70;75.30;;;;;;5070328;28;20074;-60
2023/08/12 09:15:36;;;;;;;6.07;2.83;;;22.70;75.40;;;;;;5071519;28;20040;-60
2023/08/12 09:18:05;;;;;;;5.60;2.58;;;22.70;75.50;;;;;;5072857;28;20055;-61
2023/08/12 09:20:30;;;;;;;;;;;22.80;75.70;;;;;;5072200;28;20048;-60
2023/08/12 09:22:59;;;;;;;6.65;2.85;;;22.80;75.50;;;;;;5070958;28;19927;-60
2023/08/12 09:25:29;;;;;;;4.50;2.72;;;22.80;75.60;;;;;;5072562;28;20041;-60
2023/08/12 09:28:04;;;;;;;5.63;2.42;;;22.80;75.70;;;;;;5071794;28;20051;-61
2023/08/12 09:30:33;;;;;;;6.82;3.10;;;22.80;75.70;;;;;;5072394;28;20044;-60
2023/08/12 09:33:03;;;;;;;7.18;2.83;;;22.70;75.60;;;;;;5069923;28;20412;-61
2023/08/12 09:35:32;;;;;;;5.93;3.17;;;22.80;75.70;;;;;;5072142;28;20067;-60
2023/08/12 09:37:58;;;;;;;5.80;3.10;;;22.80;75.90;;;;;;5072484;28;20056;-60
2023/08/12 09:40:24;;;;;;;6.63;2.80;;;22.70;75.90;;;;;;5051506;28;20550;-61
2023/08/12 09:42:50;;;;;;;4.97;2.70;;;22.80;76.00;;;;;;5071493;28;20071;-60
2023/08/12 09:45:15;;;;;;;5.57;2.83;;;22.80;76.00;;;;;;5069427;28;20480;-60
2023/08/12 09:47:44;;;;;;;5.55;2.53;;;22.80;75.90;;;;;;5070882;28;20032;-60
2023/08/12 09:50:10;;;;;;;6.22;2.65;;;22.80;76.10;;;;;;5070489;28;20043;-61
2023/08/12 09:52:35;;;;;;;6.78;2.78;;;22.80;76.30;;;;;;5071231;28;20048;-60
2023/08/12 09:55:01;;;;;;;7.18;3.33;;;22.80;76.40;;;;;;5053114;28;20388;-61
2023/08/12 09:57:27;;;;;;;5.45;2.90;;;22.80;76.40;;;;;;5071113;28;20045;-61
2023/08/12 09:59:53;;;;;;;8.82;3.03;;;22.80;76.50;;;;;;5070504;28;20098;-60
2023/08/12 10:02:19;;;;;;;6.63;3.08;;;22.80;76.50;;;;;;5071991;28;20044;-60
2023/08/12 10:04:45;;;;;;;4.50;2.63;;;22.80;76.60;;;;;;5053584;28;20499;-60
2023/08/12 10:07:12;;;;;;;3.85;2.70;;;22.80;76.70;;;;;;5072573;28;20053;-60
2023/08/12 10:09:38;;;;;;;5.00;2.85;;;22.80;76.60;;;;;;5071028;28;20102;-60
2023/08/12 10:12:05;;;;;;;3.80;2.75;;;22.80;76.60;;;;;;5070273;28;20048;-61
2023/08/12 10:14:31;;;;;;;6.97;3.00;;;22.80;76.70;;;;;;5071208;28;20051;-60
2023/08/12 10:16:56;;;;;;;4.72;2.70;;;22.80;76.80;;;;;;5053321;28;20045;-60
2023/08/12 10:19:22;;;;;;;5.68;3.28;;;22.80;76.80;;;;;;5072143;28;20677;-60
2023/08/12 10:21:51;;;;;;;5.55;2.97;;;22.80;76.80;;;;;;5070284;28;20052;-60
2023/08/12 10:24:17;;;;;;;5.38;2.83;;;22.80;76.90;;;;;;5053412;28;20107;-60
2023/08/12 10:26:42;;;;;;;6.60;2.70;;;22.80;76.80;;;;;;5070154;28;20455;-60
2023/08/12 10:29:08;;;;;;;5.82;2.70;;;22.80;76.80;;;;;;5068898;28;20608;-60
2023/08/12 10:31:34;;;;;;;6.38;2.70;;;22.80;76.80;;;;;;5071970;28;20037;-64
2023/08/12 10:33:59;;;;;;;4.60;2.53;;;22.80;76.90;;;;;;5070262;28;20087;-61
2023/08/12 10:36:28;;;;;;;4.28;2.17;;;22.80;76.90;;;;;;5069380;28;20055;-60
2023/08/12 10:38:54;;;;;;;4.30;2.60;;;22.80;76.70;;;;;;5070392;28;20124;-61
2023/08/12 10:41:20;;;;;;;5.60;2.97;;;22.80;76.70;;;;;;5070504;28;20189;-60
2023/08/12 10:43:59;;;;;;;4.80;3.00;;;22.80;76.80;;;;;;5070967;28;20074;-61
2023/08/12 10:46:32;;;;;;;5.97;3.42;;;22.80;76.90;;;;;;5071402;28;20496;-61
2023/08/12 10:49:10;;;;;;;6.00;3.20;;;22.80;77.10;;;;;;5071121;28;20041;-61
2023/08/12 10:51:49;;;;;;;5.40;3.10;;;22.80;77.20;;;;;;5070195;28;20072;-62
2023/08/12 10:54:22;;;;;;;3.78;2.78;;;22.80;77.20;;;;;;5071834;28;20072;-61
2023/08/12 10:57:10;;;;;;;4.80;2.70;;;22.80;77.10;;;;;;5071916;28;20124;-67
2023/08/12 10:59:45;;;;;;;8.10;2.95;;;22.80;76.80;;;;;;5070642;28;20119;-62
2023/08/12 11:02:26;;;;;;;8.18;2.83;;;22.80;76.80;;;;;;5070552;28;20484;-61
2023/08/12 11:05:04;;;;;;;4.38;2.42;;;22.80;76.80;;;;;;5069750;28;20067;-61
2023/08/12 11:07:45;;;;;;;5.50;3.15;;;22.80;76.80;;;;;;5071873;28;20093;-61
2023/08/12 11:10:17;;;;;;;5.72;2.83;;;22.90;76.80;;;;;;5071601;28;20087;-62
2023/08/12 11:12:52;;;;;;;8.93;3.05;;;22.90;76.80;;;;;;5073119;28;20072;-62
2023/08/12 11:15:31;;;;;;;7.32;3.53;;;22.90;76.80;;;;;;5075186;28;20537;-63
2023/08/12 11:17:56;;;;;;;5.97;3.38;;;22.90;76.70;;;;;;5075136;28;20399;-61
2023/08/12 11:20:22;;;;;;;9.13;3.67;;;22.90;76.70;;;;;;5074582;28;20051;-61
2023/08/12 11:22:48;;;;;;;8.98;3.55;;;22.90;76.70;;;;;;5074838;28;20040;-62
2023/08/12 11:25:13;;;;;;;6.30;3.10;;;22.90;76.90;;;;;;5074065;28;20109;-62
2023/08/12 11:27:46;;;;;;;8.73;3.20;;;22.90;76.90;;;;;;5073052;28;20055;-61
2023/08/12 11:30:15;;;;;;;7.25;3.13;;;22.90;77.00;;;;;;5074870;28;20044;-61
2023/08/12 11:32:41;;;;;;;7.95;3.00;;;22.90;77.00;;;;;;5073029;28;20166;-62
2023/08/12 11:35:07;;;;;;;7.75;3.03;;;22.90;77.00;;;;;;5072401;28;20415;-61
2023/08/12 11:37:33;;;;;;;6.45;2.80;;;22.90;77.00;;;;;;5073951;28;20072;-62
2023/08/12 11:39:58;;;;;;;7.00;2.80;;;22.90;77.20;;;;;;5072961;28;20536;-62
2023/08/12 11:42:24;;;;;;;7.88;4.07;;;22.90;77.10;;;;;;5073992;28;20037;-62
2023/08/12 11:44:50;;;;;;;8.98;4.07;;;22.90;77.30;;;;;;5074144;28;20127;-61
2023/08/12 11:47:16;;;;;;;9.75;4.03;;;22.90;77.80;;;;;;5073796;28;20044;-61
2023/08/12 11:49:41;;;;;;;8.45;3.55;;;22.90;78.20;;;;;;5073312;28;20040;-60
2023/08/12 11:52:09;;;;;;;9.32;3.55;;;23.00;78.30;;;;;;5073952;28;20076;-60
2023/08/12 11:54:35;;;;;;;6.65;3.05;;;22.90;78.00;;;;;;5071584;28;20120;-60
2023/08/12 11:57:00;;;;;;;6.03;2.92;;;23.00;78.00;;;;;;5074219;28;20127;-60
2023/08/12 11:59:26;;;;;;;7.47;2.45;;;23.00;78.00;;;;;;5074254;28;20033;-60
2023/08/12 12:01:51;;;;;;;4.97;2.50;;;23.00;77.90;;;;;;5073230;28;20377;-60
2023/08/12 12:04:20;;;;;;;6.13;2.65;;;23.00;77.90;;;;;;5073611;28;20043;-59
2023/08/12 12:06:45;;;;;;;;;;;23.00;78.00;;;;;;5072970;28;20087;-60
2023/08/12 12:09:12;;;;;;;6.32;2.15;;;23.10;77.90;;;;;;5066765;28;19968;-63
2023/08/12 12:11:38;;;;;;;6.78;2.70;;;23.10;77.90;;;;;;5073545;28;20055;-60
2023/08/12 12:14:04;;;;;;;6.20;2.58;;;23.10;77.90;;;;;;5072893;28;20040;-60
2023/08/12 12:16:40;;;;;;;9.00;2.70;;;23.10;77.80;;;;;;5072919;28;20511;-60
2023/08/12 12:19:08;;;;;;;6.60;2.38;;;23.10;77.80;;;;;;5072741;28;20115;-60
2023/08/12 12:21:41;;;;;;;7.70;2.90;;;23.20;77.80;;;;;;5073219;28;20503;-61
2023/08/12 12:24:07;;;;;;;5.88;2.55;;;23.20;77.80;;;;;;5072860;28;20036;-62
2023/08/12 12:26:34;;;;;;;6.25;2.58;;;23.20;77.70;;;;;;5073553;28;20071;-61
2023/08/12 12:28:59;;;;;;;7.75;2.22;;;23.30;77.70;;;;;;5072646;28;20140;-62
2023/08/12 12:31:26;;;;;;;5.15;2.20;;;23.30;77.60;;;;;;5072278;28;20127;-60
2023/08/12 12:33:52;;;;;;;5.03;2.40;;;23.30;77.60;;;;;;5058239;28;20063;-61
2023/08/12 12:36:18;;;;;;;7.20;2.35;;;23.30;77.50;;;;;;5071660;28;20049;-62
2023/08/12 12:38:43;;;;;;;5.15;2.10;;;23.30;77.50;;;;;;5072683;28;20094;-64
2023/08/12 12:41:09;;;;;;;6.43;2.13;;;23.30;77.40;;;;;;5057851;28;20369;-60
2023/08/12 12:43:34;;;;;;;7.28;2.67;;;23.40;77.40;;;;;;5072131;28;20092;-62